Time;durP1;ratioP1;P1;durP2;ratioP2;P2;SDS_P1;SDS_P2;PMS_P1;PMS_P2;Temp;Humidity;BMP_temperature;BMP_pressure;BME280_temperature;BME280_humidity;BME280_pressure;Samples;Min_cycle;Max_cycle;Signal;HPM_P1;HPM_P2
2022/08/17 00:00:54;;;;;;;8.32;4.87;;;;;;;24.36;63.23;100223.73;432119;122;922601;-73
2022/08/17 00:01:59;;;;;;;6.92;4.09;;;;;;;24.33;63.15;100221.56;432636;122;922735;-73
2022/08/17 00:03:16;;;;;;;6.33;4.10;;;;;;;24.32;63.13;100221.88;432277;122;922579;-74
2022/08/17 00:04:20;;;;;;;5.15;4.20;;;;;;;24.30;63.21;100224.17;439939;120;922632;-74
2022/08/17 00:05:23;;;;;;;7.02;4.46;;;;;;;24.27;63.17;100230.36;439344;120;922629;-72
2022/08/17 00:06:28;;;;;;;5.49;4.15;;;;;;;24.26;63.19;100228.73;438647;121;923367;-73
2022/08/17 00:07:31;;;;;;;6.60;4.12;;;;;;;24.24;63.27;100217.06;438571;121;922601;-73
2022/08/17 00:08:41;;;;;;;4.71;3.69;;;;;;;24.21;63.14;100218.50;438627;121;930606;-73
2022/08/17 00:09:44;;;;;;;4.85;3.97;;;;;;;24.19;62.96;100223.59;438517;121;922586;-73
2022/08/17 00:10:48;;;;;;;5.31;4.07;;;;;;;24.17;62.98;100213.84;438700;121;922575;-73
2022/08/17 00:11:51;;;;;;;5.73;4.54;;;;;;;24.16;63.09;100210.23;438631;121;922566;-74
2022/08/17 00:12:56;;;;;;;5.72;4.22;;;;;;;24.15;63.17;100208.58;435957;121;922950;-73
2022/08/17 00:14:06;;;;;;;5.24;3.60;;;;;;;24.15;63.18;100207.78;439950;120;922756;-74
2022/08/17 00:15:10;;;;;;;6.62;3.98;;;;;;;24.14;63.10;100211.70;452695;116;922999;-74
2022/08/17 00:16:25;;;;;;;6.70;4.12;;;;;;;24.12;62.90;100212.01;457125;116;922550;-74
2022/08/17 00:17:30;;;;;;;7.28;3.86;;;;;;;24.11;62.75;100208.39;454022;116;930497;-74
2022/08/17 00:18:34;;;;;;;5.20;3.92;;;;;;;24.07;62.73;100201.81;457236;116;922593;-74
2022/08/17 00:19:38;;;;;;;4.26;3.46;;;;;;;24.05;62.67;100198.50;456512;115;922572;-74
2022/08/17 00:20:42;;;;;;;4.35;3.58;;;;;;;24.02;62.69;100204.72;457260;116;922632;-75
2022/08/17 00:21:47;;;;;;;5.76;4.27;;;;;;;24.01;62.66;100202.23;457245;116;922655;-74
2022/08/17 00:23:04;;;;;;;5.42;4.21;;;;;;;23.99;62.56;100205.32;456517;116;922745;-74
2022/08/17 00:24:07;;;;;;;5.44;3.83;;;;;;;23.98;62.54;100205.66;457046;116;922948;-73
2022/08/17 00:25:14;;;;;;;8.24;4.69;;;;;;;23.97;62.54;100209.58;457257;116;923034;-74
2022/08/17 00:26:19;;;;;;;6.29;4.03;;;;;;;23.96;62.71;100213.48;457078;116;922704;-74
2022/08/17 00:27:24;;;;;;;4.74;3.63;;;;;;;23.95;62.76;100209.87;456536;115;922567;-73
2022/08/17 00:28:27;;;;;;;5.17;4.21;;;;;;;23.98;62.95;100205.66;457252;116;922614;-73
2022/08/17 00:29:32;;;;;;;6.30;4.17;;;;;;;23.99;62.95;100207.28;456641;115;922602;-73
2022/08/17 00:30:35;;;;;;;5.40;3.72;;;;;;;23.98;62.79;100200.88;454706;116;922840;-73
2022/08/17 00:31:40;;;;;;;5.26;3.82;;;;;;;23.99;62.86;100205.32;454792;115;922593;-73
2022/08/17 00:32:45;;;;;;;4.49;3.92;;;;;;;24.00;63.00;100200.58;457347;115;922582;-72
2022/08/17 00:33:50;;;;;;;7.36;3.83;;;;;;;24.02;63.14;100210.28;457390;113;923452;-73
2022/08/17 00:34:53;;;;;;;7.60;4.45;;;;;;;24.04;63.28;100204.38;466463;113;923235;-73
2022/08/17 00:35:57;;;;;;;4.83;3.42;;;;;;;24.06;63.22;100202.12;466435;113;922604;-72
2022/08/17 00:37:00;;;;;;;5.11;4.15;;;;;;;24.08;63.18;100199.85;466405;113;922591;-73
2022/08/17 00:38:06;;;;;;;5.16;3.70;;;;;;;24.09;63.17;100190.36;466444;113;923138;-73
2022/08/17 00:39:09;;;;;;;9.30;4.37;;;;;;;24.10;62.88;100190.03;466183;113;922620;-72
2022/08/17 00:40:14;;;;;;;4.33;3.79;;;;;;;24.09;62.53;100195.94;466485;113;922503;-73
2022/08/17 00:41:20;;;;;;;6.96;4.80;;;;;;;24.09;62.40;100196.73;466351;113;922566;-73
2022/08/17 00:42:23;;;;;;;4.12;3.76;;;;;;;24.08;62.46;100197.06;466312;113;922584;-72
2022/08/17 00:43:47;;;;;;;5.16;3.57;;;;;;;24.08;62.47;100200.67;465645;113;922583;-73
2022/08/17 00:44:50;;;;;;;5.24;3.77;;;;;;;24.08;62.53;100202.64;466254;113;923163;-73
2022/08/17 00:45:54;;;;;;;4.70;3.49;;;;;;;24.09;62.47;100193.16;466430;113;922552;-73
2022/08/17 00:46:57;;;;;;;6.97;4.07;;;;;;;24.09;62.55;100195.94;466453;113;922655;-72
2022/08/17 00:48:00;;;;;;;4.29;3.92;;;;;;;24.10;62.50;100195.59;466436;113;930648;-73
2022/08/17 00:49:04;;;;;;;5.84;4.14;;;;;;;24.11;62.25;100197.25;466465;113;922616;-72
2022/08/17 00:50:11;;;;;;;6.16;3.83;;;;;;;24.12;62.19;100189.72;466326;113;922628;-73
2022/08/17 00:51:21;;;;;;;4.96;3.83;;;;;;;24.13;62.17;100188.59;466284;113;923089;-73
2022/08/17 00:52:27;;;;;;;8.19;4.01;;;;;;;24.14;62.13;100194.98;466346;113;922607;-73
2022/08/17 00:53:32;;;;;;;5.32;4.10;;;;;;;24.15;62.11;100189.08;465162;113;922553;-73
2022/08/17 00:54:38;;;;;;;4.53;4.09;;;;;;;24.15;62.16;100189.08;466327;113;922499;-73
2022/08/17 00:55:43;;;;;;;4.70;3.31;;;;;;;24.17;62.19;100191.56;466245;113;923256;-72
2022/08/17 00:56:50;;;;;;;10.71;4.09;;;;;;;24.17;62.25;100178.45;466474;113;922563;-73
2022/08/17 00:57:56;;;;;;;5.17;3.44;;;;;;;24.18;62.29;100176.53;466288;113;923081;-73
2022/08/17 00:59:01;;;;;;;4.33;3.75;;;;;;;24.18;62.30;100174.57;466303;113;922751;-73
2022/08/17 01:00:08;;;;;;;4.17;3.77;;;;;;;24.19;62.38;100169.83;457556;113;922776;-73
2022/08/17 01:01:12;;;;;;;6.00;4.02;;;;;;;24.19;62.37;100173.44;446379;116;923013;-72
2022/08/17 01:02:19;;;;;;;6.23;4.01;;;;;;;24.20;62.41;100161.16;446312;118;922597;-73
2022/08/17 01:03:25;;;;;;;5.51;3.81;;;;;;;24.20;62.39;100163.95;447068;118;923302;-73
2022/08/17 01:04:30;;;;;;;7.11;3.88;;;;;;;24.19;62.38;100159.51;447300;118;922514;-72
2022/08/17 01:05:37;;;;;;;5.16;3.37;;;;;;;24.16;62.34;100160.09;453098;116;930556;-73
2022/08/17 01:06:44;;;;;;;5.19;3.82;;;;;;;24.15;62.41;100158.44;455133;116;922675;-74
2022/08/17 01:07:49;;;;;;;7.56;4.14;;;;;;;24.14;62.40;100153.20;455496;116;923100;-72
2022/08/17 01:08:54;;;;;;;5.66;3.75;;;;;;;24.13;62.53;100148.77;455484;116;922592;-73
2022/08/17 01:10:02;;;;;;;5.50;3.81;;;;;;;24.13;62.46;100143.19;455489;116;923091;-73
2022/08/17 01:11:07;;;;;;;6.62;4.22;;;;;;;24.14;62.39;100142.06;455460;116;922866;-73
2022/08/17 01:12:11;;;;;;;4.20;3.28;;;;;;;24.13;62.27;100134.84;455506;116;922577;-73
2022/08/17 01:13:15;;;;;;;7.76;4.02;;;;;;;24.11;62.24;100143.50;455590;116;922569;-73
2022/08/17 01:14:20;;;;;;;4.41;3.49;;;;;;;24.09;62.26;100152.16;455599;116;922623;-73
2022/08/17 01:15:23;;;;;;;4.07;3.67;;;;;;;24.08;62.36;100150.55;456562;116;922908;-73
2022/08/17 01:16:30;;;;;;;5.68;3.84;;;;;;;24.08;62.33;100155.28;457248;116;922604;-73
2022/08/17 01:17:33;;;;;;;7.34;3.51;;;;;;;24.07;62.30;100150.84;457257;116;923282;-73
2022/08/17 01:18:37;;;;;;;6.06;3.96;;;;;;;24.07;62.33;100156.42;457416;116;923167;-73
2022/08/17 01:19:42;;;;;;;6.24;3.33;;;;;;;24.07;62.24;100157.25;457452;116;923077;-73
2022/08/17 01:20:51;;;;;;;5.82;3.84;;;;;;;24.08;62.15;100155.28;457238;116;922653;-73
2022/08/17 01:22:13;;;;;;;5.55;4.22;;;;;;;24.07;62.05;100153.63;457207;116;923107;-74
2022/08/17 01:23:18;;;;;;;4.89;4.24;;;;;;;24.07;61.88;100145.28;457204;116;922607;-73
2022/08/17 01:24:23;;;;;;;4.18;3.41;;;;;;;24.05;61.77;100147.55;457168;116;922921;-73
2022/08/17 01:25:28;;;;;;;3.79;3.51;;;;;;;24.02;61.85;100143.44;457382;116;922536;-73
2022/08/17 01:26:34;;;;;;;5.18;4.13;;;;;;;24.02;61.86;100142.61;457199;116;922607;-73
2022/08/17 01:27:37;;;;;;;4.79;3.82;;;;;;;24.00;61.87;100140.14;457205;116;922603;-73
2022/08/17 01:28:41;;;;;;;5.26;4.06;;;;;;;24.00;61.85;100139.31;457318;116;922592;-73
2022/08/17 01:29:49;;;;;;;3.87;3.48;;;;;;;23.99;61.94;100141.27;452317;116;930522;-73
2022/08/17 01:30:54;;;;;;;6.16;3.79;;;;;;;23.98;61.94;100139.62;453645;115;923063;-73
2022/08/17 01:32:02;;;;;;;4.43;3.55;;;;;;;23.98;61.94;100142.40;456913;116;922554;-73
2022/08/17 01:33:10;;;;;;;4.47;3.99;;;;;;;23.98;61.94;100147.17;457258;116;922557;-73
2022/08/17 01:34:11;;;;;;;4.88;3.52;;;;;;;23.95;62.03;100143.05;452260;116;922965;-73
2022/08/17 01:35:14;;;;;;;7.57;3.80;;;;;;;23.95;62.03;100143.05;449548;118;923021;-73
2022/08/17 01:36:19;;;;;;;3.92;3.31;;;;;;;23.94;61.81;100146.13;449575;118;923263;-73
2022/08/17 01:37:28;;;;;;;4.15;3.74;;;;;;;23.90;61.78;100143.16;449567;118;923114;-74
2022/08/17 01:38:32;;;;;;;5.27;4.26;;;;;;;23.90;61.80;100145.13;449177;117;930514;-74
2022/08/17 01:39:39;;;;;;;4.88;3.94;;;;;;;23.87;61.76;100140.19;449548;118;922654;-73
2022/08/17 01:40:46;;;;;;;6.34;4.18;;;;;;;23.83;61.70;100145.55;449423;117;922610;-73
2022/08/17 01:41:52;;;;;;;4.54;3.79;;;;;;;23.82;61.76;100140.31;449385;118;923003;-74
2022/08/17 01:42:59;;;;;;;4.64;3.40;;;;;;;23.80;61.82;100139.79;449451;118;923129;-74
2022/08/17 01:44:04;;;;;;;5.34;3.94;;;;;;;23.80;61.88;100139.79;449324;117;922572;-73
2022/08/17 01:45:15;;;;;;;6.72;4.02;;;;;;;23.79;61.84;100140.92;449429;118;922546;-73
2022/08/17 01:46:28;;;;;;;5.19;4.08;;;;;;;23.78;61.86;100136.48;449429;117;922823;-73
2022/08/17 01:47:31;;;;;;;5.09;4.12;;;;;;;23.76;61.69;100136.00;449428;117;922791;-73
2022/08/17 01:48:38;;;;;;;4.18;3.67;;;;;;;23.73;61.65;100137.43;449506;117;922780;-73
2022/08/17 01:49:41;;;;;;;6.76;4.20;;;;;;;23.72;61.72;100129.38;449465;118;922515;-74
2022/08/17 01:50:46;;;;;;;6.58;4.43;;;;;;;23.70;61.68;100135.28;449579;118;930494;-74
2022/08/17 01:51:49;;;;;;;4.97;3.96;;;;;;;23.69;61.69;100141.98;449470;118;922638;-74
2022/08/17 01:52:56;;;;;;;5.04;3.96;;;;;;;23.67;61.39;100131.16;449624;118;923136;-73
2022/08/17 01:54:05;;;;;;;5.53;3.54;;;;;;;23.67;61.39;100131.16;449377;118;930969;-73
2022/08/17 01:55:10;;;;;;;6.38;3.97;;;;;;;23.67;61.86;100131.16;449180;118;922676;-74
2022/08/17 01:56:17;;;;;;;8.59;4.07;;;;;;;23.66;61.96;100135.06;452145;116;922600;-74
2022/08/17 01:57:20;;;;;;;7.38;4.63;;;;;;;23.67;62.01;100135.89;457258;116;923042;-74
2022/08/17 01:58:23;;;;;;;3.96;3.64;;;;;;;23.67;62.02;100138.67;457465;116;922934;-73
2022/08/17 01:59:26;;;;;;;4.26;3.51;;;;;;;23.67;62.09;100142.28;457420;116;922727;-73
2022/08/17 02:00:31;;;;;;;4.40;3.98;;;;;;;23.66;62.02;100137.85;457270;116;922650;-73
2022/08/17 02:01:36;;;;;;;4.85;3.98;;;;;;;23.64;61.97;100131.79;454466;116;922565;-73
2022/08/17 02:02:39;;;;;;;5.92;4.14;;;;;;;23.63;61.89;100140.45;457373;116;922553;-73
2022/08/17 02:03:42;;;;;;;5.38;3.44;;;;;;;23.61;61.94;100135.18;457423;116;930939;-73
2022/08/17 02:04:47;;;;;;;6.77;4.12;;;;;;;23.58;61.92;100144.17;454391;116;923398;-73
2022/08/17 02:05:52;;;;;;;3.57;3.14;;;;;;;23.55;61.85;100139.20;449649;118;922681;-73
2022/08/17 02:06:55;;;;;;;4.36;3.86;;;;;;;23.52;61.94;100145.41;449533;118;922561;-73
2022/08/17 02:07:58;;;;;;;4.38;3.69;;;;;;;23.49;61.98;100139.63;449684;118;923083;-73
2022/08/17 02:09:04;;;;;;;4.99;4.03;;;;;;;23.47;61.99;100136.34;449438;118;922589;-73
2022/08/17 02:10:09;;;;;;;4.65;4.21;;;;;;;23.46;62.06;100134.69;449453;118;922898;-73
2022/08/17 02:11:17;;;;;;;4.91;3.82;;;;;;;23.42;61.92;100134.47;448594;118;922573;-73
2022/08/17 02:12:23;;;;;;;5.67;3.84;;;;;;;23.41;61.99;100129.20;449502;118;922863;-73
2022/08/17 02:13:30;;;;;;;6.33;4.48;;;;;;;23.39;62.02;100137.86;447630;118;922661;-73
2022/08/17 02:14:33;;;;;;;4.84;4.36;;;;;;;23.37;62.13;100137.36;448930;118;923034;-73
2022/08/17 02:15:36;;;;;;;4.66;4.24;;;;;;;23.35;62.14;100136.02;452942;116;922791;-73
2022/08/17 02:16:41;;;;;;;6.67;4.39;;;;;;;23.34;62.19;100131.58;454619;116;922668;-73
2022/08/17 02:17:44;;;;;;;4.80;3.89;;;;;;;23.34;62.23;100137.14;454570;116;922623;-73
2022/08/17 02:18:47;;;;;;;4.86;4.22;;;;;;;23.33;62.27;100132.70;454539;116;922599;-73
2022/08/17 02:19:50;;;;;;;7.51;4.04;;;;;;;23.32;62.30;100128.30;454549;116;930544;-73
2022/08/17 02:20:54;;;;;;;6.00;3.67;;;;;;;23.31;62.27;100134.99;454510;116;922568;-72
2022/08/17 02:21:57;;;;;;;6.46;3.95;;;;;;;23.28;62.28;100128.91;454656;116;923419;-72
2022/08/17 02:23:01;;;;;;;4.36;3.93;;;;;;;23.26;62.28;100133.97;454658;116;922626;-72
2022/08/17 02:24:09;;;;;;;5.11;4.30;;;;;;;23.26;62.22;100138.70;454508;116;922591;-72
2022/08/17 02:25:15;;;;;;;6.83;4.49;;;;;;;23.25;62.31;100126.75;454437;116;922551;-73
2022/08/17 02:26:20;;;;;;;4.62;3.98;;;;;;;23.25;62.35;100129.53;454234;116;923214;-73
2022/08/17 02:27:25;;;;;;;5.19;3.92;;;;;;;23.23;62.36;100126.23;454042;116;922876;-73
2022/08/17 02:28:28;;;;;;;4.62;3.94;;;;;;;23.22;62.44;100123.75;454671;116;922843;-74
2022/08/17 02:29:32;;;;;;;6.73;4.86;;;;;;;23.23;62.64;100130.97;455132;115;923041;-72
2022/08/17 02:30:35;;;;;;;5.31;4.81;;;;;;;23.24;62.68;100127.88;458163;115;922621;-73
2022/08/17 02:31:41;;;;;;;7.82;4.90;;;;;;;23.26;62.77;100122.84;451679;116;922545;-72
2022/08/17 02:32:44;;;;;;;7.66;4.38;;;;;;;23.29;62.67;100119.43;454551;116;922509;-72
2022/08/17 02:33:47;;;;;;;4.65;4.21;;;;;;;23.32;62.59;100119.95;452899;116;922612;-72
2022/08/17 02:34:53;;;;;;;6.15;4.54;;;;;;;23.33;62.59;100122.41;446668;118;922579;-72
2022/08/17 02:35:56;;;;;;;5.29;4.75;;;;;;;23.35;62.65;100119.31;446927;118;923160;-72
2022/08/17 02:36:59;;;;;;;6.71;4.22;;;;;;;23.37;62.60;100119.84;446944;118;922556;-73
2022/08/17 02:38:04;;;;;;;8.06;4.39;;;;;;;23.39;62.59;100120.34;446968;118;922689;-72
2022/08/17 02:39:09;;;;;;;5.32;4.45;;;;;;;23.41;62.58;100116.13;446736;118;922666;-73
2022/08/17 02:40:13;;;;;;;5.44;4.94;;;;;;;23.42;62.57;100117.78;446780;118;922814;-72
2022/08/17 02:41:17;;;;;;;6.76;4.48;;;;;;;23.43;62.59;100113.83;446945;118;922629;-73
2022/08/17 02:42:26;;;;;;;5.05;4.55;;;;;;;23.45;62.54;100106.01;446943;118;922605;-72
2022/08/17 02:43:30;;;;;;;7.37;4.46;;;;;;;23.46;62.52;100116.05;446748;118;922910;-73
2022/08/17 02:44:33;;;;;;;5.34;4.36;;;;;;;23.46;62.53;100113.26;446871;118;922522;-73
2022/08/17 02:45:38;;;;;;;8.35;4.73;;;;;;;23.47;62.52;100112.13;446783;118;924168;-72
2022/08/17 02:46:41;;;;;;;4.86;4.39;;;;;;;23.47;62.44;100114.09;446921;118;922703;-73
2022/08/17 02:47:45;;;;;;;6.31;4.78;;;;;;;23.45;62.46;100110.75;446959;118;922567;-72
2022/08/17 02:48:48;;;;;;;5.28;4.31;;;;;;;23.44;62.47;100111.87;446860;118;922511;-73
2022/08/17 02:49:52;;;;;;;4.95;4.51;;;;;;;23.42;62.56;100109.42;446969;118;922920;-74
2022/08/17 02:50:57;;;;;;;8.17;4.42;;;;;;;23.40;62.60;100111.69;446733;118;922571;-73
2022/08/17 02:52:03;;;;;;;6.08;4.97;;;;;;;23.39;62.70;100114.77;446959;118;923043;-73
2022/08/17 02:53:06;;;;;;;6.19;4.58;;;;;;;23.38;62.78;100113.12;446794;118;922658;-73
2022/08/17 02:54:10;;;;;;;8.88;5.24;;;;;;;23.37;62.81;100108.72;446890;118;923160;-73
2022/08/17 02:55:19;;;;;;;6.26;4.27;;;;;;;23.34;63.09;100104.58;444258;118;923446;-73
2022/08/17 02:56:23;;;;;;;5.03;4.37;;;;;;;23.34;63.09;100104.58;445852;118;922967;-73
2022/08/17 02:57:26;;;;;;;4.68;4.04;;;;;;;23.34;63.04;100104.58;446998;118;922552;-74
2022/08/17 02:58:29;;;;;;;4.69;4.17;;;;;;;23.33;63.04;100102.93;446929;118;922555;-73
2022/08/17 02:59:34;;;;;;;5.39;4.40;;;;;;;23.31;63.13;100110.78;446338;118;922561;-73
2022/08/17 03:00:44;;;;;;;4.90;4.23;;;;;;;23.29;63.31;100107.47;446929;118;922883;-73
2022/08/17 03:01:48;;;;;;;4.77;4.32;;;;;;;23.29;63.40;100110.25;446734;118;922901;-74
2022/08/17 03:02:51;;;;;;;5.17;4.72;;;;;;;23.29;63.70;100105.52;446862;118;922648;-73
2022/08/17 03:03:55;;;;;;;6.54;5.31;;;;;;;23.29;63.70;100105.52;446798;118;930529;-73
2022/08/17 03:04:59;;;;;;;7.99;5.36;;;;;;;23.27;63.43;100102.21;449099;114;930535;-73
2022/08/17 03:06:03;;;;;;;6.04;5.48;;;;;;;23.25;63.44;100109.23;462637;114;923134;-73
2022/08/17 03:07:06;;;;;;;7.69;5.07;;;;;;;23.25;63.44;100109.23;462540;114;922624;-73
2022/08/17 03:08:09;;;;;;;5.53;5.10;;;;;;;23.25;63.55;100114.80;462629;114;922917;-73
2022/08/17 03:09:15;;;;;;;6.16;5.22;;;;;;;23.23;63.60;100114.27;462459;114;922933;-73
2022/08/17 03:10:19;;;;;;;7.46;5.84;;;;;;;23.24;63.57;100115.93;462465;114;922976;-73
2022/08/17 03:11:22;;;;;;;5.84;5.30;;;;;;;23.23;63.61;100117.88;462538;114;930582;-73
2022/08/17 03:12:29;;;;;;;6.00;5.46;;;;;;;23.23;63.67;100117.88;462568;114;923084;-73
2022/08/17 03:13:32;;;;;;;9.31;6.15;;;;;;;23.24;63.73;100113.15;462403;114;930515;-73
2022/08/17 03:14:37;;;;;;;6.28;5.78;;;;;;;23.24;63.73;100118.71;462655;114;922564;-73
2022/08/17 03:15:45;;;;;;;8.13;5.45;;;;;;;23.24;63.82;100113.15;454725;114;922578;-73
2022/08/17 03:16:48;;;;;;;10.13;6.27;;;;;;;23.25;63.87;100112.02;453502;117;922576;-73
2022/08/17 03:17:53;;;;;;;5.99;5.56;;;;;;;23.26;64.11;100103.38;453737;117;922627;-73
2022/08/17 03:18:56;;;;;;;11.34;6.39;;;;;;;23.28;64.08;100109.42;453535;117;922593;-73
2022/08/17 03:19:59;;;;;;;11.12;5.79;;;;;;;23.30;63.94;100109.13;453707;117;922630;-73
2022/08/17 03:21:03;;;;;;;6.92;5.64;;;;;;;23.32;63.93;100106.88;453711;117;922603;-73
2022/08/17 03:22:07;;;;;;;6.55;5.98;;;;;;;23.33;63.84;100111.27;453650;117;923246;-73
2022/08/17 03:23:12;;;;;;;6.68;5.36;;;;;;;23.33;63.85;100114.05;453070;117;922555;-73
2022/08/17 03:24:15;;;;;;;8.53;6.64;;;;;;;23.33;63.84;100110.45;453635;117;922547;-73
2022/08/17 03:25:26;;;;;;;7.06;6.36;;;;;;;23.33;63.90;100107.66;453419;117;930523;-73
2022/08/17 03:26:31;;;;;;;;;;;;;;;23.33;63.88;100107.66;457243;117;922546;-73
2022/08/17 03:27:34;;;;;;;9.39;6.94;;;;;;;23.32;63.92;100112.44;453727;117;923090;-73
2022/08/17 03:28:38;;;;;;;7.88;6.59;;;;;;;23.29;63.97;100121.39;453597;117;922521;-73
2022/08/17 03:29:41;;;;;;;9.16;7.03;;;;;;;23.29;63.97;100118.60;454808;115;922683;-73
2022/08/17 03:30:44;;;;;;;7.70;6.66;;;;;;;23.28;63.92;100116.95;458178;115;922628;-73
2022/08/17 03:31:48;;;;;;;10.46;7.06;;;;;;;23.27;64.02;100118.08;457281;114;922814;-73
2022/08/17 03:32:54;;;;;;;8.35;7.07;;;;;;;23.27;63.93;100112.52;457250;115;922941;-73
2022/08/17 03:33:57;;;;;;;8.04;7.12;;;;;;;23.26;63.97;100113.67;457188;116;922593;-73
2022/08/17 03:35:01;;;;;;;10.04;7.35;;;;;;;23.26;63.92;100110.89;457237;116;922572;-72
2022/08/17 03:36:05;;;;;;;10.91;7.72;;;;;;;23.27;63.82;100120.86;457217;114;922757;-73
2022/08/17 03:37:08;;;;;;;8.11;7.24;;;;;;;23.27;63.75;100123.64;457160;116;930947;-73
2022/08/17 03:38:13;;;;;;;8.76;7.74;;;;;;;23.26;63.74;100124.80;457240;115;922548;-73
2022/08/17 03:39:18;;;;;;;8.87;7.96;;;;;;;23.26;63.72;100128.41;457094;116;923027;-73
2022/08/17 03:40:21;;;;;;;8.27;7.54;;;;;;;23.26;63.67;100131.19;457248;116;922467;-73
2022/08/17 03:41:26;;;;;;;8.06;7.33;;;;;;;23.26;63.59;100133.14;454899;114;922852;-74
2022/08/17 03:42:30;;;;;;;9.33;6.82;;;;;;;23.26;63.52;100133.97;457395;115;922475;-73
2022/08/17 03:43:34;;;;;;;11.92;7.09;;;;;;;23.26;63.41;100138.70;457147;116;922904;-73
2022/08/17 03:44:37;;;;;;;7.37;6.64;;;;;;;23.25;63.40;100128.71;457378;115;922533;-73
2022/08/17 03:56:41;;;;;;;8.23;5.93;;;;;;;23.26;63.40;100127.58;457191;114;922601;-74
2022/08/17 03:57:44;;;;;;;7.48;6.54;;;;;;;23.26;63.51;100124.80;457193;116;923446;-73
2022/08/17 03:58:48;;;;;;;6.54;5.78;;;;;;;23.27;63.56;100127.25;457346;115;922990;-73
2022/08/17 03:59:53;;;;;;;7.86;5.79;;;;;;;23.28;63.65;100123.34;457272;115;922601;-73
2022/08/17 04:00:56;;;;;;;8.03;6.04;;;;;;;23.30;63.72;100120.26;457170;114;922912;-74
2022/08/17 04:02:07;;;;;;;6.85;5.81;;;;;;;23.33;63.70;100121.58;457261;116;930406;-73
2022/08/17 04:03:12;;;;;;;6.68;6.04;;;;;;;23.33;63.68;100122.41;457159;116;922610;-73
2022/08/17 04:04:15;;;;;;;5.88;5.11;;;;;;;23.34;63.57;100121.27;457279;115;922650;-73
2022/08/17 04:05:20;;;;;;;7.61;5.33;;;;;;;23.35;63.47;100124.88;459108;115;923137;-73
2022/08/17 04:06:23;;;;;;;9.23;5.16;;;;;;;23.35;63.47;100122.93;461437;115;923216;-73
2022/08/17 04:07:28;;;;;;;5.96;5.18;;;;;;;23.36;63.47;100121.80;461622;115;922539;-73
2022/08/17 04:08:32;;;;;;;8.29;5.19;;;;;;;23.40;63.50;100116.42;461457;115;922646;-73
2022/08/17 04:09:35;;;;;;;6.29;5.24;;;;;;;23.41;63.43;100109.73;461542;115;922653;-73
2022/08/17 04:10:39;;;;;;;5.79;5.15;;;;;;;23.41;63.40;100109.73;461465;115;922948;-73
2022/08/17 04:11:44;;;;;;;5.38;4.92;;;;;;;23.42;63.39;100115.00;461575;113;923504;-74
2022/08/17 04:12:51;;;;;;;7.72;4.89;;;;;;;23.44;63.35;100112.70;461654;115;923003;-73
2022/08/17 04:13:55;;;;;;;6.06;4.92;;;;;;;23.46;63.33;100104.09;461388;115;923041;-73
2022/08/17 04:14:58;;;;;;;6.44;5.08;;;;;;;23.47;63.25;100111.30;460961;115;923273;-74
2022/08/17 04:16:01;;;;;;;5.51;4.84;;;;;;;23.48;63.19;100116.56;457346;114;922573;-74
2022/08/17 04:17:06;;;;;;;5.97;5.21;;;;;;;23.47;63.08;100111.30;457202;116;922610;-73
2022/08/17 04:18:09;;;;;;;6.43;5.39;;;;;;;23.47;63.05;100114.91;457362;116;922618;-73
2022/08/17 04:19:13;;;;;;;6.06;4.84;;;;;;;23.47;62.94;100114.09;457295;116;922932;-72
2022/08/17 04:20:19;;;;;;;5.16;4.70;;;;;;;23.46;62.87;100115.22;457240;115;922626;-73
2022/08/17 04:21:23;;;;;;;7.67;4.73;;;;;;;23.45;62.88;100114.36;457102;114;923155;-73
2022/08/17 04:22:26;;;;;;;7.96;4.65;;;;;;;23.47;63.00;100114.09;457299;116;922584;-73
2022/08/17 04:23:33;;;;;;;5.27;4.74;;;;;;;23.48;62.95;100112.95;456579;115;930547;-71
2022/08/17 04:24:36;;;;;;;5.59;5.06;;;;;;;23.48;62.84;100112.95;457193;115;922529;-73
2022/08/17 04:25:43;;;;;;;5.99;5.35;;;;;;;23.48;62.84;100105.44;457339;116;923110;-74
2022/08/17 04:26:47;;;;;;;6.11;5.44;;;;;;;23.49;62.74;100106.23;457158;114;922676;-73
2022/08/17 04:27:53;;;;;;;6.57;5.44;;;;;;;23.49;62.61;100109.02;456640;115;922671;-72
2022/08/17 04:29:02;;;;;;;5.52;4.92;;;;;;;23.50;62.52;100111.49;457175;115;922580;-72
2022/08/17 04:30:05;;;;;;;8.43;4.61;;;;;;;23.50;62.56;100108.71;458290;115;930576;-72
2022/08/17 04:31:10;;;;;;;6.93;5.82;;;;;;;23.52;62.55;100105.63;457701;114;922899;-72
2022/08/17 04:32:13;;;;;;;5.39;4.95;;;;;;;23.55;62.49;100103.03;457239;115;922587;-72
2022/08/17 04:33:20;;;;;;;5.44;4.88;;;;;;;23.55;62.40;100111.37;457388;116;922686;-72
2022/08/17 04:34:23;;;;;;;6.13;5.58;;;;;;;23.57;62.35;100108.29;450726;114;923046;-72
2022/08/17 04:35:30;;;;;;;8.09;5.21;;;;;;;23.56;62.28;100101.90;449520;118;922590;-72
2022/08/17 04:36:35;;;;;;;5.84;5.14;;;;;;;23.56;62.09;100110.25;449345;116;930548;-72
2022/08/17 04:37:38;;;;;;;8.23;5.42;;;;;;;23.58;62.03;100107.16;449529;117;922617;-72
2022/08/17 04:38:43;;;;;;;6.55;5.10;;;;;;;23.58;61.90;100104.38;449583;118;922592;-72
2022/08/17 04:42:05;;;;;;;6.24;5.66;;;;;;;23.58;61.88;100116.34;449370;117;922606;-72
2022/08/17 04:42:16;;;;;;;6.84;5.21;;;;;;;23.60;61.68;100108.48;449304;118;922797;-72
2022/08/17 04:43:21;;;;;;;6.72;5.41;;;;;;;23.62;61.66;100113.74;449373;118;922530;-74
2022/08/17 04:44:24;;;;;;;7.87;5.61;;;;;;;23.63;61.64;100113.44;449277;118;922794;-72
2022/08/17 04:45:29;;;;;;;6.08;5.36;;;;;;;23.66;61.60;100111.97;446557;117;922579;-73
2022/08/17 04:46:35;;;;;;;5.98;5.48;;;;;;;23.68;61.38;100112.49;449158;116;923214;-73
2022/08/17 04:47:39;;;;;;;5.69;5.19;;;;;;;23.68;61.26;100118.89;449401;118;922954;-72
2022/08/17 04:48:47;;;;;;;8.17;5.35;;;;;;;23.68;61.14;100104.97;449354;118;922726;-72
2022/08/17 04:49:52;;;;;;;5.74;4.97;;;;;;;23.68;61.11;100107.75;449087;118;923622;-74
2022/08/17 04:50:57;;;;;;;7.05;5.47;;;;;;;23.70;61.13;100113.02;449097;116;923121;-74
2022/08/17 04:52:00;;;;;;;6.43;5.61;;;;;;;23.71;61.21;100109.07;449203;118;922593;-72
2022/08/17 04:53:05;;;;;;;6.85;5.71;;;;;;;23.73;61.21;100103.20;449073;118;923097;-73
2022/08/17 04:54:11;;;;;;;8.23;5.38;;;;;;;23.74;61.16;100100.11;449409;118;922860;-73
2022/08/17 04:55:14;;;;;;;7.61;5.45;;;;;;;23.75;61.16;100101.76;449203;118;922570;-72
2022/08/17 04:56:18;;;;;;;6.78;6.16;;;;;;;23.76;61.20;100100.63;449438;118;922649;-72
2022/08/17 04:57:21;;;;;;;6.42;5.62;;;;;;;23.77;61.05;100099.47;449346;118;922497;-72
2022/08/17 04:58:24;;;;;;;7.47;6.28;;;;;;;23.79;60.89;100085.23;449426;118;922862;-73
2022/08/17 04:59:28;;;;;;;6.56;5.85;;;;;;;23.80;60.85;100096.07;449337;118;923044;-74
2022/08/17 05:00:32;;;;;;;8.02;5.69;;;;;;;23.83;60.82;100101.00;449358;117;922593;-72
2022/08/17 05:01:37;;;;;;;6.22;5.34;;;;;;;23.85;60.89;100093.16;449300;116;922892;-73
2022/08/17 05:02:48;;;;;;;6.13;5.58;;;;;;;23.89;61.02;100096.13;449240;118;922629;-73
2022/08/17 05:03:55;;;;;;;6.22;5.59;;;;;;;23.90;61.02;100093.04;449234;118;922953;-72
2022/08/17 05:04:58;;;;;;;8.31;6.07;;;;;;;23.93;60.99;100094.36;451042;115;923718;-71
2022/08/17 05:06:03;;;;;;;6.35;5.52;;;;;;;23.98;61.00;100099.83;461558;114;922778;-72
2022/08/17 05:07:06;;;;;;;6.42;5.61;;;;;;;24.00;60.92;100094.75;461572;115;922703;-72
2022/08/17 05:08:09;;;;;;;9.93;5.72;;;;;;;24.03;60.76;100102.48;461476;115;930563;-72
2022/08/17 05:09:13;;;;;;;5.39;4.77;;;;;;;24.04;60.56;100088.23;461638;115;922626;-74
2022/08/17 05:10:16;;;;;;;6.41;5.14;;;;;;;24.07;60.44;100090.39;461508;114;922555;-74
2022/08/17 05:11:20;;;;;;;6.00;5.49;;;;;;;24.09;60.31;100087.30;461529;115;930639;-73